createdAt,value
2023-05-10T00:00:45.772Z,3.10
2023-05-10T00:03:48.585Z,3.10
2023-05-10T00:06:51.359Z,3.10
2023-05-10T00:09:53.952Z,2.90
2023-05-10T00:12:56.729Z,2.50
2023-05-10T00:15:59.280Z,3.30
2023-05-10T00:19:01.930Z,2.90
2023-05-10T00:22:04.466Z,3.40
2023-05-10T00:25:08.111Z,3.40
2023-05-10T00:28:10.731Z,3.50
2023-05-10T00:31:13.405Z,3.40
2023-05-10T00:34:16.463Z,2.80
2023-05-10T00:37:19.140Z,2.70
2023-05-10T00:40:22.094Z,2.90
2023-05-10T00:43:24.664Z,3.30
2023-05-10T00:46:28.197Z,3.20
2023-05-10T00:49:31.148Z,2.90
2023-05-10T00:52:34.001Z,3.20
2023-05-10T00:55:37.145Z,3.10
2023-05-10T00:58:41.020Z,3.50
2023-05-10T01:01:47.219Z,3.20
2023-05-10T01:04:50.573Z,2.80
2023-05-10T01:07:53.776Z,3.40
2023-05-10T01:10:56.624Z,3.40
2023-05-10T01:13:59.927Z,2.90
2023-05-10T01:17:03.900Z,2.90
2023-05-10T01:20:09.354Z,3.10
2023-05-10T01:23:19.186Z,3.00
2023-05-10T01:26:35.430Z,3.20
2023-05-10T01:30:13.656Z,3.50
2023-05-10T01:34:08.879Z,3.30
2023-05-10T01:37:52.183Z,3.00
2023-05-10T01:41:20.226Z,3.00
2023-05-10T01:44:32.343Z,2.90
2023-05-10T01:47:44.627Z,3.70
2023-05-10T01:50:48.682Z,3.00
2023-05-10T01:58:10.959Z,3.60
2023-05-10T02:01:14.722Z,2.90
2023-05-10T02:04:20.326Z,3.30
2023-05-10T02:07:25.166Z,2.70
2023-05-10T02:10:29.654Z,3.60
2023-05-10T02:13:35.488Z,3.40
2023-05-10T02:16:40.037Z,3.60
2023-05-10T02:19:44.349Z,3.70
2023-05-10T02:22:50.391Z,4.00
2023-05-10T02:26:06.914Z,3.50
2023-05-10T02:29:10.922Z,3.30
2023-05-10T02:32:15.494Z,3.40
2023-05-10T02:35:18.562Z,3.20
2023-05-10T02:38:25.075Z,3.70
2023-05-10T02:41:29.229Z,3.70
2023-05-10T02:44:33.520Z,3.40
2023-05-10T02:47:36.592Z,3.20
2023-05-10T02:50:44.960Z,3.90
2023-05-10T02:53:50.622Z,3.90
2023-05-10T02:56:59.626Z,3.30
2023-05-10T03:00:03.922Z,3.60
2023-05-10T03:03:06.705Z,4.00
2023-05-10T03:06:09.331Z,4.50
2023-05-10T03:09:16.217Z,3.30
2023-05-10T03:12:26.858Z,3.50
2023-05-10T03:15:39.105Z,3.70
2023-05-10T03:19:08.636Z,3.90
2023-05-10T03:22:14.212Z,3.90
2023-05-10T03:25:18.082Z,3.60
2023-05-10T03:28:22.265Z,4.30
2023-05-10T03:31:25.246Z,3.90
2023-05-10T03:34:27.928Z,3.60
2023-05-10T03:37:30.492Z,4.20
2023-05-10T03:40:33.321Z,3.40
2023-05-10T03:43:46.029Z,3.80
2023-05-10T03:46:49.031Z,3.70
2023-05-10T03:49:52.071Z,3.60
2023-05-10T03:52:55.022Z,3.90
2023-05-10T03:55:57.717Z,3.70
2023-05-10T03:59:00.482Z,3.60
2023-05-10T04:02:03.890Z,3.80
2023-05-10T04:05:07.359Z,4.10
2023-05-10T04:08:10.398Z,3.70
2023-05-10T04:11:13.823Z,4.00
2023-05-10T04:14:16.571Z,4.10
2023-05-10T04:17:19.116Z,4.30
2023-05-10T04:20:21.711Z,4.10
2023-05-10T04:23:24.369Z,4.00
2023-05-10T04:26:26.939Z,3.50
2023-05-10T04:29:29.592Z,3.80
2023-05-10T04:32:32.621Z,4.30
2023-05-10T04:35:36.353Z,4.10
2023-05-10T04:38:39.160Z,4.00
2023-05-10T04:41:41.777Z,4.40
2023-05-10T04:44:44.706Z,4.50
2023-05-10T04:47:57.606Z,4.30
2023-05-10T04:51:00.773Z,3.70
2023-05-10T04:54:06.392Z,3.80
2023-05-10T04:57:09.434Z,3.80
2023-05-10T05:00:12.594Z,4.30
2023-05-10T05:03:15.327Z,3.80
2023-05-10T05:06:21.083Z,3.70
2023-05-10T05:09:23.678Z,3.60
2023-05-10T05:12:26.335Z,3.10
2023-05-10T05:15:28.987Z,3.80
2023-05-10T05:18:31.576Z,4.00
2023-05-10T05:21:34.172Z,3.60
2023-05-10T05:24:39.170Z,3.40
2023-05-10T05:27:42.326Z,3.20
2023-05-10T05:30:44.962Z,3.90
2023-05-10T05:33:47.762Z,4.00
2023-05-10T05:36:50.335Z,3.40
2023-05-10T05:39:52.996Z,3.80
2023-05-10T05:42:55.849Z,3.70
2023-05-10T05:45:59.169Z,3.00
2023-05-10T05:49:02.521Z,3.40
2023-05-10T05:52:05.800Z,3.30
2023-05-10T05:55:08.668Z,3.50
2023-05-10T05:58:11.182Z,3.00
2023-05-10T06:01:13.795Z,3.00
2023-05-10T06:04:17.281Z,3.10
2023-05-10T06:07:19.977Z,3.70
2023-05-10T06:10:23.840Z,3.50
2023-05-10T06:13:30.125Z,3.50
2023-05-10T06:16:32.828Z,3.40
2023-05-10T06:19:35.507Z,2.90
2023-05-10T06:22:38.148Z,3.20
2023-05-10T06:25:41.338Z,2.70
2023-05-10T06:28:44.031Z,3.20
2023-05-10T06:31:46.742Z,2.90
2023-05-10T06:34:49.457Z,2.80
2023-05-10T06:37:52.571Z,3.30
2023-05-10T06:40:55.198Z,2.90
2023-05-10T06:43:57.723Z,2.60
2023-05-10T06:47:00.529Z,3.10
2023-05-10T06:50:07.135Z,2.60
2023-05-10T06:53:09.745Z,2.90
2023-05-10T06:56:12.414Z,3.10
2023-05-10T06:59:16.609Z,2.70
2023-05-10T07:02:19.747Z,2.70
2023-05-10T07:05:23.019Z,2.60
2023-05-10T07:08:25.633Z,3.10
2023-05-10T07:11:28.294Z,2.60
2023-05-10T07:14:31.026Z,2.60
2023-05-10T07:17:34.518Z,2.90
2023-05-10T07:20:37.119Z,2.80
2023-05-10T07:23:39.757Z,3.00
2023-05-10T07:26:42.283Z,2.60
2023-05-10T07:29:44.901Z,2.70
2023-05-10T07:32:47.614Z,2.50
2023-05-10T07:35:51.048Z,2.80
2023-05-10T07:38:53.815Z,2.80
2023-05-10T07:41:56.853Z,2.90
2023-05-10T07:44:59.596Z,2.70
2023-05-10T07:48:02.677Z,2.60
2023-05-10T07:51:05.701Z,2.70
2023-05-10T07:54:26.384Z,2.80
2023-05-10T07:57:28.941Z,2.70
2023-05-10T08:00:31.624Z,2.30
2023-05-10T08:03:34.338Z,2.40
2023-05-10T08:06:41.699Z,2.60
2023-05-10T08:09:44.618Z,2.60
2023-05-10T08:12:47.193Z,2.20
2023-05-10T08:15:50.030Z,2.50
2023-05-10T08:18:52.855Z,2.10
2023-05-10T08:21:56.717Z,2.30
2023-05-10T08:24:59.334Z,2.10
2023-05-10T08:28:02.150Z,2.50
2023-05-10T08:31:05.896Z,1.90
2023-05-10T08:34:08.908Z,2.10
2023-05-10T08:37:14.488Z,2.20
2023-05-10T08:40:20.578Z,2.60
2023-05-10T08:43:27.257Z,2.10
2023-05-10T08:46:32.082Z,2.20
2023-05-10T08:49:35.960Z,2.20
2023-05-10T08:52:41.427Z,1.80
2023-05-10T08:55:44.370Z,2.50
2023-05-10T08:58:47.015Z,2.00
2023-05-10T09:01:51.551Z,2.50
2023-05-10T09:04:54.291Z,1.80
2023-05-10T09:07:56.913Z,2.40
2023-05-10T09:11:02.197Z,2.10
2023-05-10T09:14:05.358Z,2.10
2023-05-10T09:17:08.291Z,1.70
2023-05-10T09:20:11.497Z,2.10
2023-05-10T09:23:14.170Z,1.80
2023-05-10T09:26:17.309Z,2.10
2023-05-10T09:29:20.115Z,1.70
2023-05-10T09:32:22.926Z,2.10
2023-05-10T09:35:29.627Z,1.60
2023-05-10T09:38:49.190Z,1.80
2023-05-10T09:41:51.791Z,1.60
2023-05-10T09:44:54.625Z,1.70
2023-05-10T09:47:58.902Z,1.80
2023-05-10T09:51:01.786Z,1.80
2023-05-10T09:54:14.620Z,1.70
2023-05-10T09:57:25.170Z,1.80
2023-05-10T10:00:28.498Z,1.90
2023-05-10T10:03:31.321Z,1.80
2023-05-10T10:06:41.246Z,1.80
2023-05-10T10:09:43.892Z,1.80
2023-05-10T10:12:46.532Z,1.50
2023-05-10T10:15:52.288Z,1.60
2023-05-10T10:18:55.498Z,2.00
2023-05-10T10:21:58.751Z,1.60
2023-05-10T10:25:01.913Z,1.50
2023-05-10T10:28:26.135Z,1.50
2023-05-10T10:31:40.436Z,1.70
2023-05-10T10:34:43.083Z,1.50
2023-05-10T10:37:47.267Z,1.80
2023-05-10T10:41:03.493Z,1.30
2023-05-10T10:44:27.478Z,1.80
2023-05-10T10:47:34.183Z,1.80
2023-05-10T10:50:46.051Z,2.20
2023-05-10T10:53:49.253Z,1.80
2023-05-10T10:57:14.807Z,1.30
2023-05-10T11:00:22.184Z,1.50
2023-05-10T11:03:25.850Z,1.60
2023-05-10T11:06:36.663Z,1.90
2023-05-10T11:09:42.716Z,1.70
2023-05-10T11:13:05.453Z,1.50
2023-05-10T11:16:12.374Z,1.50
2023-05-10T11:19:17.550Z,1.40
2023-05-10T11:22:20.112Z,1.70
2023-05-10T11:25:28.098Z,1.30
2023-05-10T11:28:30.846Z,1.60
2023-05-10T11:31:33.952Z,1.60
2023-05-10T11:34:36.552Z,1.10
2023-05-10T11:37:42.442Z,1.40
2023-05-10T11:40:45.047Z,1.60
2023-05-10T11:43:50.126Z,1.50
2023-05-10T11:46:53.152Z,1.60
2023-05-10T11:49:56.103Z,1.60
2023-05-10T11:52:59.880Z,1.60
2023-05-10T11:56:09.976Z,1.20
2023-05-10T11:59:16.237Z,1.50
2023-05-10T12:02:19.067Z,1.40
2023-05-10T12:05:21.908Z,1.60
2023-05-10T12:08:29.035Z,1.80
2023-05-10T12:11:31.537Z,1.90
2023-05-10T12:14:40.158Z,1.70
2023-05-10T12:17:45.525Z,1.40
2023-05-10T12:20:48.437Z,1.50
2023-05-10T12:23:56.604Z,1.50
2023-05-10T12:30:23.841Z,1.60
2023-05-10T12:33:26.814Z,1.40
2023-05-10T12:36:29.477Z,1.30
2023-05-10T12:39:41.181Z,1.80
2023-05-10T12:42:45.994Z,1.40
2023-05-10T12:45:49.208Z,1.40
2023-05-10T12:49:07.928Z,1.20
2023-05-10T12:52:14.126Z,1.30
2023-05-10T12:55:16.810Z,1.30
2023-05-10T12:58:34.470Z,1.50
2023-05-10T13:01:38.786Z,1.40
2023-05-10T13:04:43.075Z,1.40
2023-05-10T13:07:46.384Z,1.40
2023-05-10T13:10:49.760Z,1.40
2023-05-10T13:13:52.842Z,1.60
2023-05-10T13:16:55.636Z,1.60
2023-05-10T13:19:58.269Z,1.20
2023-05-10T13:23:01.029Z,1.30
2023-05-10T13:26:03.695Z,1.70
2023-05-10T13:29:06.384Z,1.90
2023-05-10T13:32:09.654Z,1.90
2023-05-10T13:35:12.514Z,1.20
2023-05-10T13:38:15.202Z,1.70
2023-05-10T13:41:17.952Z,1.40
2023-05-10T13:44:21.744Z,1.50
2023-05-10T13:47:24.433Z,1.70
2023-05-10T13:50:27.167Z,1.40
2023-05-10T13:53:29.940Z,1.60
2023-05-10T13:57:29.094Z,1.40
2023-05-10T14:00:41.474Z,1.20
2023-05-10T14:03:44.483Z,0.90
2023-05-10T14:06:47.629Z,1.00
2023-05-10T14:09:50.499Z,1.20
2023-05-10T14:12:53.268Z,1.10
2023-05-10T14:15:56.675Z,1.30
2023-05-10T14:18:59.376Z,1.10
2023-05-10T14:22:02.186Z,1.40
2023-05-10T14:25:05.360Z,1.20
2023-05-10T14:28:08.256Z,1.10
2023-05-10T14:31:11.103Z,1.30
2023-05-10T14:34:14.071Z,1.40
2023-05-10T14:37:17.572Z,1.00
2023-05-10T14:40:20.326Z,1.30
2023-05-10T14:43:23.092Z,0.90
2023-05-10T14:46:25.846Z,1.40
2023-05-10T14:49:28.828Z,1.30
2023-05-10T14:53:28.081Z,1.00
2023-05-10T14:56:44.882Z,1.20
2023-05-10T14:59:47.740Z,1.00
2023-05-10T15:02:51.287Z,1.10
2023-05-10T15:05:54.786Z,1.10
2023-05-10T15:08:57.474Z,1.00
2023-05-10T15:12:00.159Z,1.00
2023-05-10T15:15:03.328Z,0.90
2023-05-10T15:18:06.867Z,1.10
2023-05-10T15:21:10.094Z,1.10
2023-05-10T15:24:12.746Z,1.10
2023-05-10T15:27:15.524Z,1.70
2023-05-10T15:30:18.198Z,1.20
2023-05-10T15:33:20.843Z,1.00
2023-05-10T15:36:23.633Z,0.70
2023-05-10T15:39:26.377Z,0.90
2023-05-10T15:42:29.044Z,1.10
2023-05-10T15:45:32.214Z,1.20
2023-05-10T15:48:35.005Z,1.00
2023-05-10T15:51:58.481Z,1.20
2023-05-10T15:55:01.092Z,0.90
2023-05-10T15:58:03.699Z,1.10
2023-05-10T16:01:06.880Z,0.80
2023-05-10T16:04:33.543Z,0.80
2023-05-10T16:07:36.224Z,0.80
2023-05-10T16:10:38.904Z,1.10
2023-05-10T16:13:41.536Z,1.20
2023-05-10T16:16:44.432Z,0.90
2023-05-10T16:20:05.590Z,1.00
2023-05-10T16:23:08.468Z,0.90
2023-05-10T16:26:11.125Z,1.00
2023-05-10T16:29:13.792Z,0.80
2023-05-10T16:36:07.018Z,0.70
2023-05-10T16:39:24.730Z,0.90
2023-05-10T16:42:28.214Z,1.10
2023-05-10T16:45:32.715Z,0.80
2023-05-10T16:48:35.724Z,1.50
2023-05-10T16:51:38.351Z,0.90
2023-05-10T16:54:47.065Z,0.90
2023-05-10T16:57:50.445Z,0.90
2023-05-10T17:00:53.210Z,0.90
2023-05-10T17:03:56.082Z,1.00
2023-05-10T17:06:58.950Z,0.90
2023-05-10T17:10:01.544Z,0.80
2023-05-10T17:13:04.172Z,1.00
2023-05-10T17:16:08.220Z,1.00
2023-05-10T17:19:11.392Z,0.70
2023-05-10T17:22:14.420Z,0.70
2023-05-10T17:25:35.600Z,0.90
2023-05-10T17:28:38.182Z,0.80
2023-05-10T17:32:02.484Z,0.90
2023-05-10T17:35:06.487Z,1.00
2023-05-10T17:38:09.097Z,1.20
2023-05-10T17:41:11.653Z,1.10
2023-05-10T17:44:14.397Z,1.20
2023-05-10T17:47:36.177Z,1.00
2023-05-10T17:50:43.430Z,1.40
2023-05-10T17:53:46.275Z,1.30
2023-05-10T17:56:49.138Z,0.80
2023-05-10T17:59:51.753Z,1.00
2023-05-10T18:03:01.468Z,0.90
2023-05-10T18:06:04.593Z,0.80
2023-05-10T18:09:07.701Z,0.60
2023-05-10T18:15:52.464Z,1.10
2023-05-10T18:18:55.090Z,1.10
2023-05-10T18:21:57.767Z,1.10
2023-05-10T18:25:00.502Z,1.00
2023-05-10T18:28:03.266Z,1.00
2023-05-10T18:31:05.855Z,1.30
2023-05-10T18:34:44.923Z,1.10
2023-05-10T18:37:48.715Z,1.60
2023-05-10T18:40:51.588Z,2.40
2023-05-10T18:44:09.494Z,1.80
2023-05-10T18:47:12.061Z,1.40
2023-05-10T18:50:14.810Z,1.30
2023-05-10T18:53:17.724Z,1.30
2023-05-10T18:56:20.403Z,1.60
2023-05-10T18:59:23.232Z,1.70
2023-05-10T19:02:26.832Z,1.30
2023-05-10T19:05:31.728Z,1.30
2023-05-10T19:08:34.321Z,1.70
2023-05-10T19:11:36.971Z,1.60
2023-05-10T19:14:39.637Z,1.40
2023-05-10T19:17:44.525Z,1.60
2023-05-10T19:20:47.824Z,1.80
2023-05-10T19:23:50.488Z,1.80
2023-05-10T19:26:53.462Z,1.60
2023-05-10T19:29:57.153Z,2.10
2023-05-10T19:32:59.772Z,2.10
2023-05-10T19:36:02.919Z,2.00
2023-05-10T19:39:05.555Z,1.90
2023-05-10T19:42:08.283Z,1.90
2023-05-10T19:45:12.113Z,1.70
2023-05-10T19:48:14.745Z,2.00
2023-05-10T19:51:17.481Z,2.40
2023-05-10T19:54:27.173Z,2.00
2023-05-10T19:57:29.844Z,2.30
2023-05-10T20:00:32.428Z,2.00
2023-05-10T20:03:35.969Z,1.80
2023-05-10T20:06:39.055Z,1.70
2023-05-10T20:09:44.412Z,1.90
2023-05-10T20:12:51.311Z,2.20
2023-05-10T20:15:58.433Z,2.20
2023-05-10T20:19:01.310Z,1.90
2023-05-10T20:22:05.531Z,2.00
2023-05-10T20:25:09.080Z,1.80
2023-05-10T20:28:13.173Z,2.60
2023-05-10T20:31:15.756Z,2.30
2023-05-10T20:34:24.539Z,3.10
2023-05-10T20:37:28.241Z,3.00
2023-05-10T20:40:31.879Z,2.90
2023-05-10T20:43:34.787Z,3.60
2023-05-10T20:46:37.878Z,3.30
2023-05-10T20:49:46.665Z,3.50
2023-05-10T20:52:52.281Z,2.80
2023-05-10T20:55:54.825Z,3.20
2023-05-10T20:58:57.397Z,3.30
2023-05-10T21:02:01.369Z,3.10
2023-05-10T21:05:04.513Z,3.30
2023-05-10T21:08:29.864Z,3.40
2023-05-10T21:11:35.843Z,3.50
2023-05-10T21:14:38.669Z,3.40
2023-05-10T21:17:41.256Z,3.10
2023-05-10T21:20:44.325Z,3.30
2023-05-10T21:23:47.252Z,3.20
2023-05-10T21:26:49.854Z,3.30
2023-05-10T21:29:53.228Z,3.10
2023-05-10T21:32:59.728Z,3.20
2023-05-10T21:36:02.556Z,3.10
2023-05-10T21:39:07.568Z,3.20
2023-05-10T21:42:10.157Z,3.20
2023-05-10T21:45:13.124Z,3.00
2023-05-10T21:48:15.800Z,3.40
2023-05-10T21:51:18.567Z,3.80
2023-05-10T21:54:27.383Z,3.60
2023-05-10T21:57:30.229Z,3.80
2023-05-10T22:00:34.195Z,3.20
2023-05-10T22:03:37.107Z,3.10
2023-05-10T22:06:39.709Z,3.20
2023-05-10T22:09:43.024Z,3.00
2023-05-10T22:12:45.590Z,3.00
2023-05-10T22:15:48.270Z,2.70
2023-05-10T22:18:51.027Z,3.10
2023-05-10T22:21:54.124Z,2.40
2023-05-10T22:24:56.680Z,2.90
2023-05-10T22:27:59.238Z,2.70
2023-05-10T22:31:01.853Z,2.90
2023-05-10T22:34:04.564Z,2.50
2023-05-10T22:37:07.182Z,2.90
2023-05-10T22:40:10.621Z,3.20
2023-05-10T22:43:13.285Z,2.90
2023-05-10T22:46:15.918Z,2.80
2023-05-10T22:49:18.619Z,3.10
2023-05-10T22:52:21.157Z,3.60
2023-05-10T22:55:23.753Z,2.70
2023-05-10T22:58:26.911Z,3.20
2023-05-10T23:01:29.942Z,3.30
2023-05-10T23:04:32.575Z,3.00
2023-05-10T23:07:35.422Z,3.00
2023-05-10T23:10:38.578Z,2.90
2023-05-10T23:13:41.179Z,3.00
2023-05-10T23:16:43.852Z,3.40
2023-05-10T23:19:46.691Z,2.70
2023-05-10T23:22:49.766Z,2.80
2023-05-10T23:25:52.429Z,2.70
2023-05-10T23:28:54.992Z,2.80
2023-05-10T23:31:57.592Z,3.30
2023-05-10T23:35:00.218Z,2.80
2023-05-10T23:38:03.271Z,3.30
2023-05-10T23:41:06.289Z,2.80
2023-05-10T23:44:08.836Z,2.70
2023-05-10T23:47:11.413Z,3.30
2023-05-10T23:50:14.774Z,2.90
2023-05-10T23:53:17.542Z,3.20
2023-05-10T23:56:20.088Z,3.10
2023-05-10T23:59:22.774Z,3.70
